| time (UTC) | temp F | wind direction | speed knots | gust knots | rain 1hr in | rain 24hr in | rain mn in | humidity % | barometer mb |
| 20260509021534 | 0 | 0.0 | 0.0 | 0.00 | 0.00 | 0.00 | 1016.1 | ||
| 20260509020035 | 0 | 0.0 | 0.0 | 0.00 | 0.00 | 0.00 | 1016.2 | ||
| 20260509014533 | 0 | 0.0 | 0.0 | 0.00 | 0.00 | 0.00 | 1016.2 | ||
| 20260509013038 | 0 | 0.0 | 0.0 | 0.00 | 0.00 | 0.00 | 1016.1 | ||
| 20260509011535 | 0 | 0.0 | 0.0 | 0.00 | 0.00 | 0.00 | 1015.7 | ||
| 20260509010034 | 0 | 0.0 | 0.0 | 0.00 | 0.00 | 0.00 | 1015.8 | ||
| 20260509004539 | 0 | 0.0 | 0.0 | 0.00 | 0.00 | 0.00 | 1015.7 | ||
| 20260509003041 | 0 | 0.0 | 0.0 | 0.00 | 0.00 | 0.00 | 1015.8 | ||
| 20260509001531 | 60 | 0 | 0.0 | 0.0 | 0.00 | 0.00 | 0.00 | 80 | 1015.8 |
| 20260509000040 | 61 | 0 | 0.0 | 0.9 | 0.00 | 0.00 | 0.00 | 79 | 1015.7 |
| 20260508234538 | 61 | 0 | 0.0 | 0.9 | 0.00 | 0.00 | 0.00 | 77 | 1015.6 |
| 20260508233032 | 63 | 0 | 0.0 | 0.9 | 0.00 | 0.00 | 0.00 | 75 | 1015.3 |
| 20260508231531 | 63 | 0 | 0.0 | 0.9 | 0.00 | 0.00 | 0.00 | 72 | 1015.6 |
| 20260508230033 | 64 | 0 | 0.0 | 1.7 | 0.00 | 0.00 | 0.00 | 67 | 1015.5 |
| 20260508224534 | 65 | 0 | 0.0 | 0.9 | 0.00 | 0.00 | 0.00 | 64 | 1015.5 |
| 20260508223038 | 65 | 0 | 0.0 | 3.5 | 0.00 | 0.00 | 0.00 | 60 | 1015.5 |
| 20260508221536 | 66 | 200 | 0.0 | 2.6 | 0.00 | 0.00 | 0.00 | 59 | 1015.5 |
| 20260508220032 | 66 | 193 | 0.0 | 2.6 | 0.00 | 0.00 | 0.00 | 58 | 1015.6 |
| 20260508214534 | 66 | 183 | 0.0 | 3.5 | 0.00 | 0.00 | 0.00 | 56 | 1015.4 |
| 20260508213031 | 66 | 289 | 0.9 | 4.3 | 0.00 | 0.00 | 0.00 | 57 | 1015.6 |
| 20260508211532 | 67 | 0 | 0.0 | 4.3 | 0.00 | 0.00 | 0.00 | 56 | 1015.6 |
| 20260508210036 | 67 | 157 | 0.9 | 5.2 | 0.00 | 0.00 | 0.00 | 51 | 1015.8 |
| 20260508204536 | 68 | 244 | 1.7 | 6.1 | 0.00 | 0.00 | 0.00 | 51 | 1015.5 |
| 20260508203032 | 68 | 213 | 0.9 | 7.0 | 0.00 | 0.00 | 0.00 | 52 | 1015.8 |
| 20260508201534 | 68 | 0 | 0.9 | 7.0 | 0.00 | 0.00 | 0.00 | 51 | 1015.8 |
| 20260508200034 | 68 | 237 | 0.9 | 3.5 | 0.00 | 0.00 | 0.00 | 51 | 1016.1 |
| 20260508194559 | 68 | 248 | 1.7 | 6.1 | 0.00 | 0.00 | 0.00 | 52 | 1016.2 |
| 20260508193034 | 69 | 0 | 2.6 | 7.8 | 0.00 | 0.00 | 0.00 | 48 | 1016.6 |
| 20260508191535 | 69 | 225 | 1.7 | 6.1 | 0.00 | 0.00 | 0.00 | 48 | 1016.8 |
| 20260508190032 | 69 | 189 | 2.6 | 6.1 | 0.00 | 0.00 | 0.00 | 49 | 1017.0 |
| 20260508184534 | 68 | 173 | 0.0 | 4.3 | 0.00 | 0.00 | 0.00 | 52 | 1017.2 |
| 20260508183034 | 68 | 258 | 0.9 | 6.1 | 0.00 | 0.00 | 0.00 | 50 | 1017.4 |
| 20260508181550 | 69 | 273 | 1.7 | 7.8 | 0.00 | 0.00 | 0.00 | 49 | 1017.7 |
| 20260508180036 | 68 | 201 | 2.6 | 7.8 | 0.00 | 0.00 | 0.00 | 50 | 1017.9 |
| 20260508174537 | 68 | 258 | 0.9 | 7.0 | 0.00 | 0.00 | 0.00 | 54 | 1017.8 |
| 20260508173039 | 68 | 73 | 2.6 | 6.1 | 0.00 | 0.00 | 0.00 | 51 | 1018.0 |
| 20260508171534 | 67 | 268 | 2.6 | 5.2 | 0.00 | 0.00 | 0.00 | 49 | 1018.3 |
| 20260508170034 | 66 | 91 | 0.9 | 7.0 | 0.00 | 0.00 | 0.00 | 49 | 1018.4 |
| 20260508164535 | 66 | 246 | 1.7 | 7.8 | 0.00 | 0.00 | 0.00 | 51 | 1018.7 |
| 20260508163031 | 66 | 0 | 1.7 | 6.1 | 0.00 | 0.00 | 0.00 | 50 | 1018.8 |
| 20260508161533 | 66 | 198 | 2.6 | 7.0 | 0.00 | 0.00 | 0.00 | 51 | 1019.2 |
| 20260508160033 | 64 | 0 | 0.0 | 4.3 | 0.00 | 0.00 | 0.00 | 56 | 1019.2 |
| 20260508154534 | 65 | 94 | 0.9 | 4.3 | 0.00 | 0.00 | 0.00 | 53 | 1019.3 |
| 20260508153044 | 65 | 0 | 1.7 | 4.3 | 0.00 | 0.00 | 0.00 | 53 | 1019.5 |
| 20260508151532 | 64 | 242 | 0.9 | 5.2 | 0.00 | 0.00 | 0.00 | 52 | 1019.5 |
| 20260508150034 | 64 | 56 | 2.6 | 7.8 | 0.00 | 0.00 | 0.00 | 53 | 1019.6 |
| 20260508144532 | 63 | 0 | 0.0 | 6.1 | 0.00 | 0.00 | 0.00 | 52 | 1019.4 |
| 20260508143037 | 63 | 0 | 0.9 | 5.2 | 0.00 | 0.00 | 0.00 | 53 | 1019.5 |
| 20260508141533 | 63 | 43 | 1.7 | 4.3 | 0.00 | 0.00 | 0.00 | 55 | 1019.6 |
| 20260508140037 | 61 | 0 | 1.7 | 6.1 | 0.00 | 0.00 | 0.00 | 55 | 1019.9 |
| 20260508134533 | 61 | 32 | 0.9 | 3.5 | 0.00 | 0.00 | 0.00 | 56 | 1020.1 |
| 20260508133043 | 60 | 44 | 0.0 | 2.6 | 0.00 | 0.00 | 0.00 | 62 | 1019.9 |
| 20260508131532 | 57 | 0 | 0.0 | 1.7 | 0.00 | 0.00 | 0.00 | 72 | 1019.8 |
| 20260508130035 | 56 | 58 | 0.0 | 1.7 | 0.00 | 0.00 | 0.00 | 86 | 1019.5 |
| 20260508124535 | 54 | 0 | 0.0 | 0.0 | 0.00 | 0.00 | 0.00 | 91 | 1019.2 |
| 20260508123050 | 52 | 0 | 0.0 | 0.0 | 0.00 | 0.00 | 0.00 | 94 | 1019.0 |
| 20260508121532 | 50 | 0 | 0.0 | 0.0 | 0.00 | 0.00 | 0.00 | 94 | 1018.9 |
| 20260508120031 | 48 | 0 | 0.0 | 0.0 | 0.00 | 0.00 | 0.00 | 94 | 1018.5 |
| 20260508114531 | 46 | 0 | 0.0 | 0.0 | 0.00 | 0.00 | 0.00 | 93 | 1018.4 |
| 20260508113034 | 46 | 0 | 0.0 | 0.0 | 0.00 | 0.00 | 0.00 | 93 | 1018.1 |
| 20260508111532 | 0 | 0.0 | 0.0 | 0.00 | 0.00 | 0.00 | 1017.8 | ||
| 20260508110035 | 0 | 0.0 | 0.0 | 0.00 | 0.00 | 0.00 | 1017.5 | ||
| 20260508104533 | 0 | 0.0 | 0.0 | 0.00 | 0.00 | 0.00 | 1017.3 | ||
| 20260508103030 | 0 | 0.0 | 0.0 | 0.00 | 0.00 | 0.00 | 1017.2 | ||
| 20260508101532 | 0 | 0.0 | 0.0 | 0.00 | 0.00 | 0.00 | 1017.0 | ||
| 20260508100033 | 0 | 0.0 | 0.0 | 0.00 | 0.00 | 0.00 | 1016.6 | ||
| 20260508094533 | 0 | 0.0 | 0.0 | 0.00 | 0.00 | 0.00 | 1016.4 | ||
| 20260508093034 | 0 | 0.0 | 0.0 | 0.00 | 0.00 | 0.00 | 1016.2 | ||
| 20260508091532 | 0 | 0.0 | 0.0 | 0.00 | 0.00 | 0.00 | 1016.3 | ||
| 20260508090036 | 0 | 0.0 | 0.0 | 0.00 | 0.00 | 0.00 | 1016.2 | ||
| 20260508084535 | 0 | 0.0 | 0.0 | 0.00 | 0.00 | 0.00 | 1016.2 | ||
| 20260508083031 | 0 | 0.0 | 0.0 | 0.00 | 0.00 | 0.00 | 1016.3 | ||
| 20260508081534 | 0 | 0.0 | 0.0 | 0.00 | 0.00 | 0.00 | 1016.1 | ||
| 20260508080032 | 0 | 0.0 | 0.0 | 0.00 | 0.00 | 0.00 | 1016.1 | ||
| 20260508074536 | 0 | 0.0 | 0.0 | 0.00 | 0.00 | 0.00 | 1016.2 | ||
| 20260508073034 | 0 | 0.0 | 0.0 | 0.00 | 0.00 | 0.00 | 1016.1 | ||
| 20260508071534 | 0 | 0.0 | 0.0 | 0.00 | 0.00 | 0.00 | 1016.1 | ||
| 20260508070032 | 0 | 0.0 | 0.0 | 0.00 | 0.00 | 0.00 | 1016.2 | ||
| 20260508064535 | 0 | 0.0 | 0.0 | 0.00 | 0.00 | 0.00 | 1015.8 | ||
| 20260508063035 | 0 | 0.0 | 0.0 | 0.00 | 0.00 | 0.00 | 1015.8 | ||
| 20260508061534 | 0 | 0.0 | 0.0 | 0.00 | 0.00 | 0.00 | 1015.6 | ||
| 20260508060032 | 0 | 0.0 | 0.0 | 0.00 | 0.00 | 0.00 | 1015.6 | ||
| 20260508054538 | 0 | 0.0 | 0.0 | 0.00 | 0.00 | 0.00 | 1015.4 | ||
| 20260508053032 | 0 | 0.0 | 0.0 | 0.00 | 0.00 | 0.00 | 1015.8 | ||
| 20260508051535 | 0 | 0.0 | 0.0 | 0.00 | 0.00 | 0.00 | 1015.7 | ||
| 20260508050034 | 0 | 0.0 | 0.0 | 0.00 | 0.00 | 0.00 | 1015.7 | ||
| 20260508044534 | 0 | 0.0 | 0.0 | 0.00 | 0.00 | 0.00 | 1015.4 | ||
| 20260508043031 | 0 | 0.0 | 0.0 | 0.00 | 0.00 | 0.00 | 1015.3 | ||
| 20260508041532 | 0 | 0.0 | 0.0 | 0.00 | 0.00 | 0.00 | 1015.3 | ||
| 20260508040036 | 0 | 0.0 | 0.0 | 0.00 | 0.00 | 0.00 | 1015.2 | ||
| 20260508034543 | 0 | 0.0 | 0.0 | 0.00 | 0.00 | 0.00 | 1015.3 | ||
| 20260508033035 | 0 | 0.0 | 0.0 | 0.00 | 0.00 | 0.00 | 1015.4 | ||
| 20260508031533 | 0 | 0.0 | 0.0 | 0.00 | 0.00 | 0.00 | 1015.3 | ||
| 20260508030042 | 0 | 0.0 | 0.0 | 0.00 | 0.00 | 0.00 | 1015.0 | ||
| 20260508024535 | 0 | 0.0 | 0.0 | 0.00 | 0.00 | 0.00 | 1015.0 | ||
| 20260508023035 | 0 | 0.0 | 0.0 | 0.00 | 0.00 | 0.00 | 1014.8 |